sensor_id;sensor_type;location;lat;lon;timestamp;P1;durP1;ratioP1;P2;durP2;ratioP2
11016;SDS011;54687;50.800;6.772;2022-12-18T00:02:05;19.70;;;16.90;;
11016;SDS011;54687;50.800;6.772;2022-12-18T00:04:32;18.30;;;16.10;;
11016;SDS011;54687;50.800;6.772;2022-12-18T00:06:59;20.53;;;15.97;;
11016;SDS011;54687;50.800;6.772;2022-12-18T00:09:25;18.63;;;15.23;;
11016;SDS011;54687;50.800;6.772;2022-12-18T00:11:52;23.17;;;18.27;;
11016;SDS011;54687;50.800;6.772;2022-12-18T00:14:20;20.30;;;15.93;;
11016;SDS011;54687;50.800;6.772;2022-12-18T00:16:46;21.30;;;16.37;;
11016;SDS011;54687;50.800;6.772;2022-12-18T00:19:13;20.63;;;16.20;;
11016;SDS011;54687;50.800;6.772;2022-12-18T00:21:41;18.73;;;15.90;;
11016;SDS011;54687;50.800;6.772;2022-12-18T00:24:08;20.67;;;15.97;;
11016;SDS011;54687;50.800;6.772;2022-12-18T00:26:35;20.63;;;16.50;;
11016;SDS011;54687;50.800;6.772;2022-12-18T00:29:04;19.37;;;15.97;;
11016;SDS011;54687;50.800;6.772;2022-12-18T00:31:33;20.70;;;15.97;;
11016;SDS011;54687;50.800;6.772;2022-12-18T00:34:00;21.40;;;16.60;;
11016;SDS011;54687;50.800;6.772;2022-12-18T00:36:28;20.37;;;15.43;;
11016;SDS011;54687;50.800;6.772;2022-12-18T00:38:58;20.10;;;14.27;;
11016;SDS011;54687;50.800;6.772;2022-12-18T00:41:25;19.47;;;15.10;;
11016;SDS011;54687;50.800;6.772;2022-12-18T00:44:11;19.03;;;14.27;;
11016;SDS011;54687;50.800;6.772;2022-12-18T00:46:41;16.43;;;13.80;;
11016;SDS011;54687;50.800;6.772;2022-12-18T00:49:08;18.10;;;14.33;;
11016;SDS011;54687;50.800;6.772;2022-12-18T00:51:39;21.00;;;15.30;;
11016;SDS011;54687;50.800;6.772;2022-12-18T00:54:05;17.23;;;14.37;;
11016;SDS011;54687;50.800;6.772;2022-12-18T00:56:32;17.00;;;14.33;;
11016;SDS011;54687;50.800;6.772;2022-12-18T00:58:58;21.60;;;16.30;;
11016;SDS011;54687;50.800;6.772;2022-12-18T01:01:25;24.23;;;17.47;;
11016;SDS011;54687;50.800;6.772;2022-12-18T01:03:53;21.97;;;16.83;;
11016;SDS011;54687;50.800;6.772;2022-12-18T01:06:22;23.53;;;18.13;;
11016;SDS011;54687;50.800;6.772;2022-12-18T01:08:48;20.90;;;16.83;;
11016;SDS011;54687;50.800;6.772;2022-12-18T01:11:16;21.43;;;17.10;;
11016;SDS011;54687;50.800;6.772;2022-12-18T01:13:45;19.10;;;14.87;;
11016;SDS011;54687;50.800;6.772;2022-12-18T01:16:12;20.83;;;15.07;;
11016;SDS011;54687;50.800;6.772;2022-12-18T01:18:39;19.50;;;15.03;;
11016;SDS011;54687;50.800;6.772;2022-12-18T01:21:07;18.47;;;13.73;;
11016;SDS011;54687;50.800;6.772;2022-12-18T01:23:35;17.63;;;13.87;;
11016;SDS011;54687;50.800;6.772;2022-12-18T01:26:05;17.83;;;13.60;;
11016;SDS011;54687;50.800;6.772;2022-12-18T01:28:33;20.53;;;16.40;;
11016;SDS011;54687;50.800;6.772;2022-12-18T01:31:09;21.57;;;16.17;;
11016;SDS011;54687;50.800;6.772;2022-12-18T01:33:40;19.93;;;14.67;;
11016;SDS011;54687;50.800;6.772;2022-12-18T01:36:08;21.43;;;15.87;;
11016;SDS011;54687;50.800;6.772;2022-12-18T01:38:40;18.93;;;14.90;;
11016;SDS011;54687;50.800;6.772;2022-12-18T01:41:08;17.93;;;13.70;;
11016;SDS011;54687;50.800;6.772;2022-12-18T01:43:49;17.17;;;12.63;;
11016;SDS011;54687;50.800;6.772;2022-12-18T01:46:18;18.03;;;13.60;;
11016;SDS011;54687;50.800;6.772;2022-12-18T01:48:47;16.00;;;13.77;;
11016;SDS011;54687;50.800;6.772;2022-12-18T01:51:18;17.23;;;12.87;;
11016;SDS011;54687;50.800;6.772;2022-12-18T01:53:45;19.57;;;14.63;;
11016;SDS011;54687;50.800;6.772;2022-12-18T01:56:14;18.20;;;13.93;;
11016;SDS011;54687;50.800;6.772;2022-12-18T01:58:44;15.93;;;13.17;;
11016;SDS011;54687;50.800;6.772;2022-12-18T02:01:16;16.90;;;13.57;;
11016;SDS011;54687;50.800;6.772;2022-12-18T02:03:44;18.53;;;14.27;;
11016;SDS011;54687;50.800;6.772;2022-12-18T02:06:13;18.97;;;14.73;;
11016;SDS011;54687;50.800;6.772;2022-12-18T02:08:45;21.00;;;15.30;;
11016;SDS011;54687;50.800;6.772;2022-12-18T02:11:22;19.90;;;14.57;;
11016;SDS011;54687;50.800;6.772;2022-12-18T02:13:57;16.97;;;13.87;;
11016;SDS011;54687;50.800;6.772;2022-12-18T02:16:32;16.27;;;13.27;;
11016;SDS011;54687;50.800;6.772;2022-12-18T02:19:06;16.23;;;12.83;;
11016;SDS011;54687;50.800;6.772;2022-12-18T02:21:45;21.27;;;15.20;;
11016;SDS011;54687;50.800;6.772;2022-12-18T02:24:27;18.07;;;14.03;;
11016;SDS011;54687;50.800;6.772;2022-12-18T02:27:04;17.00;;;13.17;;
11016;SDS011;54687;50.800;6.772;2022-12-18T02:29:34;17.00;;;14.27;;
11016;SDS011;54687;50.800;6.772;2022-12-18T02:32:05;18.17;;;14.30;;
11016;SDS011;54687;50.800;6.772;2022-12-18T02:34:37;18.80;;;13.47;;
11016;SDS011;54687;50.800;6.772;2022-12-18T02:37:05;19.03;;;13.77;;
11016;SDS011;54687;50.800;6.772;2022-12-18T02:39:36;20.77;;;14.50;;
11016;SDS011;54687;50.800;6.772;2022-12-18T02:42:05;19.30;;;14.27;;
11016;SDS011;54687;50.800;6.772;2022-12-18T02:44:33;19.50;;;14.63;;
11016;SDS011;54687;50.800;6.772;2022-12-18T02:47:00;18.83;;;15.53;;
11016;SDS011;54687;50.800;6.772;2022-12-18T02:49:33;22.33;;;16.20;;
11016;SDS011;54687;50.800;6.772;2022-12-18T02:52:08;19.23;;;15.23;;
11016;SDS011;54687;50.800;6.772;2022-12-18T02:54:51;20.83;;;15.57;;
11016;SDS011;54687;50.800;6.772;2022-12-18T02:57:30;19.57;;;13.97;;
11016;SDS011;54687;50.800;6.772;2022-12-18T03:00:02;18.63;;;14.90;;
11016;SDS011;54687;50.800;6.772;2022-12-18T03:02:36;20.27;;;15.70;;
11016;SDS011;54687;50.800;6.772;2022-12-18T03:05:07;21.97;;;16.57;;
11016;SDS011;54687;50.800;6.772;2022-12-18T03:07:42;21.63;;;16.20;;
11016;SDS011;54687;50.800;6.772;2022-12-18T03:10:16;21.70;;;16.93;;
11016;SDS011;54687;50.800;6.772;2022-12-18T03:12:50;23.10;;;17.40;;
11016;SDS011;54687;50.800;6.772;2022-12-18T03:15:21;22.43;;;16.93;;
11016;SDS011;54687;50.800;6.772;2022-12-18T03:17:52;22.43;;;17.03;;
11016;SDS011;54687;50.800;6.772;2022-12-18T03:20:22;21.80;;;15.53;;
11016;SDS011;54687;50.800;6.772;2022-12-18T03:22:56;21.13;;;16.33;;
11016;SDS011;54687;50.800;6.772;2022-12-18T03:25:27;20.43;;;15.40;;
11016;SDS011;54687;50.800;6.772;2022-12-18T03:27:57;22.77;;;16.97;;
11016;SDS011;54687;50.800;6.772;2022-12-18T03:30:27;23.37;;;17.27;;
11016;SDS011;54687;50.800;6.772;2022-12-18T03:32:56;24.73;;;17.90;;
11016;SDS011;54687;50.800;6.772;2022-12-18T03:35:29;22.07;;;17.20;;
11016;SDS011;54687;50.800;6.772;2022-12-18T03:37:59;22.77;;;17.73;;
11016;SDS011;54687;50.800;6.772;2022-12-18T03:40:26;22.47;;;17.07;;
11016;SDS011;54687;50.800;6.772;2022-12-18T03:43:02;24.40;;;18.13;;
11016;SDS011;54687;50.800;6.772;2022-12-18T03:45:36;25.80;;;18.47;;
11016;SDS011;54687;50.800;6.772;2022-12-18T03:48:08;23.60;;;18.03;;
11016;SDS011;54687;50.800;6.772;2022-12-18T03:50:43;29.07;;;18.47;;
11016;SDS011;54687;50.800;6.772;2022-12-18T03:53:17;24.93;;;17.90;;
11016;SDS011;54687;50.800;6.772;2022-12-18T03:55:50;24.37;;;17.50;;
11016;SDS011;54687;50.800;6.772;2022-12-18T03:58:19;24.87;;;18.20;;
11016;SDS011;54687;50.800;6.772;2022-12-18T04:00:49;24.60;;;17.70;;
11016;SDS011;54687;50.800;6.772;2022-12-18T04:03:18;28.43;;;18.67;;
11016;SDS011;54687;50.800;6.772;2022-12-18T04:05:46;24.50;;;18.03;;
11016;SDS011;54687;50.800;6.772;2022-12-18T04:08:15;25.53;;;18.00;;
11016;SDS011;54687;50.800;6.772;2022-12-18T04:10:42;22.67;;;17.77;;
11016;SDS011;54687;50.800;6.772;2022-12-18T04:13:09;23.57;;;17.90;;
11016;SDS011;54687;50.800;6.772;2022-12-18T04:15:37;24.97;;;17.07;;
11016;SDS011;54687;50.800;6.772;2022-12-18T04:18:04;25.60;;;18.60;;
11016;SDS011;54687;50.800;6.772;2022-12-18T04:20:31;23.50;;;18.07;;
11016;SDS011;54687;50.800;6.772;2022-12-18T04:22:57;25.13;;;19.33;;
11016;SDS011;54687;50.800;6.772;2022-12-18T04:25:25;24.17;;;18.13;;
11016;SDS011;54687;50.800;6.772;2022-12-18T04:27:51;24.83;;;18.47;;
11016;SDS011;54687;50.800;6.772;2022-12-18T04:30:18;23.67;;;17.13;;
11016;SDS011;54687;50.800;6.772;2022-12-18T04:32:46;22.70;;;17.20;;
11016;SDS011;54687;50.800;6.772;2022-12-18T04:35:12;24.70;;;17.80;;
11016;SDS011;54687;50.800;6.772;2022-12-18T04:37:39;21.00;;;16.40;;
11016;SDS011;54687;50.800;6.772;2022-12-18T04:40:05;21.80;;;16.73;;
11016;SDS011;54687;50.800;6.772;2022-12-18T04:42:33;21.87;;;17.37;;
11016;SDS011;54687;50.800;6.772;2022-12-18T04:45:00;25.00;;;18.77;;
11016;SDS011;54687;50.800;6.772;2022-12-18T04:47:26;22.83;;;16.47;;
11016;SDS011;54687;50.800;6.772;2022-12-18T04:49:54;22.70;;;17.37;;
11016;SDS011;54687;50.800;6.772;2022-12-18T04:52:22;25.97;;;17.93;;
11016;SDS011;54687;50.800;6.772;2022-12-18T04:54:49;22.80;;;16.33;;
11016;SDS011;54687;50.800;6.772;2022-12-18T04:57:16;21.83;;;16.47;;
11016;SDS011;54687;50.800;6.772;2022-12-18T04:59:43;23.40;;;17.13;;
11016;SDS011;54687;50.800;6.772;2022-12-18T05:02:09;21.67;;;16.13;;
11016;SDS011;54687;50.800;6.772;2022-12-18T05:04:36;23.67;;;17.77;;
11016;SDS011;54687;50.800;6.772;2022-12-18T05:07:04;23.10;;;17.93;;
11016;SDS011;54687;50.800;6.772;2022-12-18T05:09:30;22.33;;;16.73;;
11016;SDS011;54687;50.800;6.772;2022-12-18T05:11:57;21.40;;;17.27;;
11016;SDS011;54687;50.800;6.772;2022-12-18T05:14:23;23.00;;;18.17;;
11016;SDS011;54687;50.800;6.772;2022-12-18T05:16:50;24.70;;;18.10;;
11016;SDS011;54687;50.800;6.772;2022-12-18T05:19:17;24.13;;;19.03;;
11016;SDS011;54687;50.800;6.772;2022-12-18T05:21:44;24.40;;;18.30;;
11016;SDS011;54687;50.800;6.772;2022-12-18T05:24:12;25.97;;;18.23;;
11016;SDS011;54687;50.800;6.772;2022-12-18T05:26:39;26.53;;;18.70;;
11016;SDS011;54687;50.800;6.772;2022-12-18T05:29:05;23.70;;;18.30;;
11016;SDS011;54687;50.800;6.772;2022-12-18T05:31:32;23.20;;;17.43;;
11016;SDS011;54687;50.800;6.772;2022-12-18T05:33:58;24.97;;;18.00;;
11016;SDS011;54687;50.800;6.772;2022-12-18T05:36:25;23.70;;;18.13;;
11016;SDS011;54687;50.800;6.772;2022-12-18T05:38:51;26.53;;;19.23;;
11016;SDS011;54687;50.800;6.772;2022-12-18T05:41:19;25.37;;;18.93;;
11016;SDS011;54687;50.800;6.772;2022-12-18T05:43:46;25.30;;;18.90;;
11016;SDS011;54687;50.800;6.772;2022-12-18T05:46:13;24.40;;;18.10;;
11016;SDS011;54687;50.800;6.772;2022-12-18T05:48:41;25.00;;;19.20;;
11016;SDS011;54687;50.800;6.772;2022-12-18T05:51:08;20.83;;;16.47;;
11016;SDS011;54687;50.800;6.772;2022-12-18T05:53:36;24.63;;;18.60;;
11016;SDS011;54687;50.800;6.772;2022-12-18T05:56:04;25.03;;;19.07;;
11016;SDS011;54687;50.800;6.772;2022-12-18T05:58:33;22.40;;;17.33;;
11016;SDS011;54687;50.800;6.772;2022-12-18T06:01:05;25.63;;;19.50;;
11016;SDS011;54687;50.800;6.772;2022-12-18T06:03:34;26.60;;;19.17;;
11016;SDS011;54687;50.800;6.772;2022-12-18T06:06:00;28.00;;;19.90;;
11016;SDS011;54687;50.800;6.772;2022-12-18T06:08:27;26.60;;;20.33;;
11016;SDS011;54687;50.800;6.772;2022-12-18T06:10:54;27.03;;;20.80;;
11016;SDS011;54687;50.800;6.772;2022-12-18T06:13:20;26.50;;;19.90;;
11016;SDS011;54687;50.800;6.772;2022-12-18T06:15:49;27.80;;;21.17;;
11016;SDS011;54687;50.800;6.772;2022-12-18T06:18:15;37.73;;;26.23;;
11016;SDS011;54687;50.800;6.772;2022-12-18T06:20:42;37.93;;;26.27;;
11016;SDS011;54687;50.800;6.772;2022-12-18T06:23:09;29.03;;;22.20;;
11016;SDS011;54687;50.800;6.772;2022-12-18T06:25:37;28.40;;;20.77;;
11016;SDS011;54687;50.800;6.772;2022-12-18T06:28:05;27.47;;;21.27;;
11016;SDS011;54687;50.800;6.772;2022-12-18T06:30:31;28.43;;;20.10;;
11016;SDS011;54687;50.800;6.772;2022-12-18T06:33:00;26.80;;;21.23;;
11016;SDS011;54687;50.800;6.772;2022-12-18T06:35:27;31.10;;;20.23;;
11016;SDS011;54687;50.800;6.772;2022-12-18T06:37:54;25.37;;;19.67;;
11016;SDS011;54687;50.800;6.772;2022-12-18T06:40:20;26.53;;;20.10;;
11016;SDS011;54687;50.800;6.772;2022-12-18T06:42:48;26.27;;;20.27;;
11016;SDS011;54687;50.800;6.772;2022-12-18T06:45:15;29.73;;;21.80;;
11016;SDS011;54687;50.800;6.772;2022-12-18T06:47:42;29.90;;;20.80;;
11016;SDS011;54687;50.800;6.772;2022-12-18T06:50:10;27.80;;;20.83;;
11016;SDS011;54687;50.800;6.772;2022-12-18T06:52:38;30.80;;;21.53;;
11016;SDS011;54687;50.800;6.772;2022-12-18T06:55:07;30.53;;;22.27;;
11016;SDS011;54687;50.800;6.772;2022-12-18T06:57:35;29.73;;;22.90;;
11016;SDS011;54687;50.800;6.772;2022-12-18T07:00:02;34.07;;;21.80;;
11016;SDS011;54687;50.800;6.772;2022-12-18T07:02:30;27.60;;;21.33;;
11016;SDS011;54687;50.800;6.772;2022-12-18T07:04:57;27.90;;;21.20;;
11016;SDS011;54687;50.800;6.772;2022-12-18T07:07:27;27.00;;;21.27;;
11016;SDS011;54687;50.800;6.772;2022-12-18T07:09:54;27.17;;;21.00;;
11016;SDS011;54687;50.800;6.772;2022-12-18T07:12:21;28.43;;;21.40;;
11016;SDS011;54687;50.800;6.772;2022-12-18T07:14:48;31.07;;;21.97;;
11016;SDS011;54687;50.800;6.772;2022-12-18T07:17:14;28.07;;;21.43;;
11016;SDS011;54687;50.800;6.772;2022-12-18T07:19:41;29.83;;;22.63;;
11016;SDS011;54687;50.800;6.772;2022-12-18T07:22:08;31.13;;;23.60;;
11016;SDS011;54687;50.800;6.772;2022-12-18T07:24:36;30.80;;;23.33;;
11016;SDS011;54687;50.800;6.772;2022-12-18T07:27:02;29.40;;;22.10;;
11016;SDS011;54687;50.800;6.772;2022-12-18T07:29:29;31.33;;;22.50;;
11016;SDS011;54687;50.800;6.772;2022-12-18T07:31:56;29.33;;;22.13;;
11016;SDS011;54687;50.800;6.772;2022-12-18T07:34:22;30.83;;;23.03;;
11016;SDS011;54687;50.800;6.772;2022-12-18T07:36:49;30.53;;;23.20;;
11016;SDS011;54687;50.800;6.772;2022-12-18T07:39:15;29.40;;;22.67;;
11016;SDS011;54687;50.800;6.772;2022-12-18T07:41:43;28.77;;;22.60;;
11016;SDS011;54687;50.800;6.772;2022-12-18T07:44:31;30.47;;;21.50;;
11016;SDS011;54687;50.800;6.772;2022-12-18T07:46:57;29.33;;;22.33;;
11016;SDS011;54687;50.800;6.772;2022-12-18T07:49:24;30.60;;;22.17;;
11016;SDS011;54687;50.800;6.772;2022-12-18T07:51:50;30.10;;;22.37;;
11016;SDS011;54687;50.800;6.772;2022-12-18T07:54:17;29.63;;;22.93;;
11016;SDS011;54687;50.800;6.772;2022-12-18T07:56:45;31.70;;;23.27;;
11016;SDS011;54687;50.800;6.772;2022-12-18T07:59:11;31.87;;;23.67;;
11016;SDS011;54687;50.800;6.772;2022-12-18T08:01:38;31.27;;;23.83;;
11016;SDS011;54687;50.800;6.772;2022-12-18T08:04:04;35.00;;;24.10;;
11016;SDS011;54687;50.800;6.772;2022-12-18T08:06:31;30.43;;;23.03;;
11016;SDS011;54687;50.800;6.772;2022-12-18T08:08:58;31.57;;;22.93;;
11016;SDS011;54687;50.800;6.772;2022-12-18T08:11:25;31.97;;;22.57;;
11016;SDS011;54687;50.800;6.772;2022-12-18T08:13:54;30.00;;;21.97;;
11016;SDS011;54687;50.800;6.772;2022-12-18T08:16:21;32.57;;;24.07;;
11016;SDS011;54687;50.800;6.772;2022-12-18T08:18:48;30.07;;;23.13;;
11016;SDS011;54687;50.800;6.772;2022-12-18T08:21:16;30.30;;;23.40;;
11016;SDS011;54687;50.800;6.772;2022-12-18T08:23:46;27.10;;;21.43;;
11016;SDS011;54687;50.800;6.772;2022-12-18T08:26:13;32.30;;;24.07;;
11016;SDS011;54687;50.800;6.772;2022-12-18T08:28:40;28.13;;;22.27;;
11016;SDS011;54687;50.800;6.772;2022-12-18T08:31:09;26.40;;;21.77;;
11016;SDS011;54687;50.800;6.772;2022-12-18T08:33:36;30.57;;;22.83;;
11016;SDS011;54687;50.800;6.772;2022-12-18T08:36:04;28.50;;;21.43;;
11016;SDS011;54687;50.800;6.772;2022-12-18T08:38:31;27.63;;;21.53;;
11016;SDS011;54687;50.800;6.772;2022-12-18T08:40:58;30.23;;;22.10;;
11016;SDS011;54687;50.800;6.772;2022-12-18T08:43:26;30.00;;;22.87;;
11016;SDS011;54687;50.800;6.772;2022-12-18T08:46:11;29.27;;;22.47;;
11016;SDS011;54687;50.800;6.772;2022-12-18T08:48:41;27.37;;;21.37;;
11016;SDS011;54687;50.800;6.772;2022-12-18T08:51:07;27.37;;;21.33;;
11016;SDS011;54687;50.800;6.772;2022-12-18T08:53:35;28.20;;;21.67;;
11016;SDS011;54687;50.800;6.772;2022-12-18T08:56:02;28.27;;;22.77;;
11016;SDS011;54687;50.800;6.772;2022-12-18T08:58:28;27.97;;;22.03;;
11016;SDS011;54687;50.800;6.772;2022-12-18T09:00:59;25.50;;;20.50;;
11016;SDS011;54687;50.800;6.772;2022-12-18T09:03:27;26.17;;;21.83;;
11016;SDS011;54687;50.800;6.772;2022-12-18T09:05:54;28.77;;;21.83;;
11016;SDS011;54687;50.800;6.772;2022-12-18T09:08:20;31.23;;;22.70;;
11016;SDS011;54687;50.800;6.772;2022-12-18T09:10:47;26.97;;;20.67;;
11016;SDS011;54687;50.800;6.772;2022-12-18T09:13:15;29.37;;;22.10;;
11016;SDS011;54687;50.800;6.772;2022-12-18T09:15:44;27.57;;;21.53;;
11016;SDS011;54687;50.800;6.772;2022-12-18T09:18:12;26.87;;;22.10;;
11016;SDS011;54687;50.800;6.772;2022-12-18T09:20:41;28.10;;;21.50;;
11016;SDS011;54687;50.800;6.772;2022-12-18T09:23:08;29.70;;;22.70;;
11016;SDS011;54687;50.800;6.772;2022-12-18T09:25:35;28.90;;;21.10;;
11016;SDS011;54687;50.800;6.772;2022-12-18T09:28:02;27.83;;;21.93;;
11016;SDS011;54687;50.800;6.772;2022-12-18T09:30:30;25.83;;;21.00;;
11016;SDS011;54687;50.800;6.772;2022-12-18T09:32:58;25.40;;;20.43;;
11016;SDS011;54687;50.800;6.772;2022-12-18T09:35:25;26.83;;;21.00;;
11016;SDS011;54687;50.800;6.772;2022-12-18T09:37:54;27.07;;;20.93;;
11016;SDS011;54687;50.800;6.772;2022-12-18T09:40:21;24.17;;;18.37;;
11016;SDS011;54687;50.800;6.772;2022-12-18T09:42:50;23.53;;;19.53;;
11016;SDS011;54687;50.800;6.772;2022-12-18T09:45:21;23.93;;;20.30;;
11016;SDS011;54687;50.800;6.772;2022-12-18T09:47:49;24.67;;;20.07;;
11016;SDS011;54687;50.800;6.772;2022-12-18T09:50:23;25.03;;;19.33;;
11016;SDS011;54687;50.800;6.772;2022-12-18T09:52:56;23.63;;;19.20;;
11016;SDS011;54687;50.800;6.772;2022-12-18T09:55:27;25.13;;;20.00;;
11016;SDS011;54687;50.800;6.772;2022-12-18T09:57:59;22.57;;;19.03;;
11016;SDS011;54687;50.800;6.772;2022-12-18T10:00:31;23.80;;;18.30;;
11016;SDS011;54687;50.800;6.772;2022-12-18T10:02:58;23.60;;;18.07;;
11016;SDS011;54687;50.800;6.772;2022-12-18T10:05:29;23.47;;;19.57;;
11016;SDS011;54687;50.800;6.772;2022-12-18T10:08:07;22.77;;;18.73;;
11016;SDS011;54687;50.800;6.772;2022-12-18T10:10:40;22.80;;;18.00;;
11016;SDS011;54687;50.800;6.772;2022-12-18T10:13:15;20.80;;;17.60;;
11016;SDS011;54687;50.800;6.772;2022-12-18T10:16:01;25.00;;;18.60;;
11016;SDS011;54687;50.800;6.772;2022-12-18T10:18:38;23.03;;;18.30;;
11016;SDS011;54687;50.800;6.772;2022-12-18T10:21:20;20.13;;;17.30;;
11016;SDS011;54687;50.800;6.772;2022-12-18T10:23:57;24.57;;;18.67;;
11016;SDS011;54687;50.800;6.772;2022-12-18T10:26:29;20.83;;;17.97;;
11016;SDS011;54687;50.800;6.772;2022-12-18T10:28:58;23.27;;;18.07;;
11016;SDS011;54687;50.800;6.772;2022-12-18T10:31:25;22.90;;;19.17;;
11016;SDS011;54687;50.800;6.772;2022-12-18T10:33:53;22.87;;;19.03;;
11016;SDS011;54687;50.800;6.772;2022-12-18T10:36:20;22.77;;;19.17;;
11016;SDS011;54687;50.800;6.772;2022-12-18T10:38:47;20.57;;;18.20;;
11016;SDS011;54687;50.800;6.772;2022-12-18T10:41:25;27.83;;;18.43;;
11016;SDS011;54687;50.800;6.772;2022-12-18T10:46:39;22.23;;;18.77;;
11016;SDS011;54687;50.800;6.772;2022-12-18T10:49:07;23.77;;;18.80;;
11016;SDS011;54687;50.800;6.772;2022-12-18T10:51:45;21.87;;;17.63;;
11016;SDS011;54687;50.800;6.772;2022-12-18T10:54:14;23.73;;;17.67;;
11016;SDS011;54687;50.800;6.772;2022-12-18T10:56:44;22.90;;;17.80;;
11016;SDS011;54687;50.800;6.772;2022-12-18T10:59:12;22.47;;;16.97;;
11016;SDS011;54687;50.800;6.772;2022-12-18T11:01:50;21.73;;;18.57;;
11016;SDS011;54687;50.800;6.772;2022-12-18T11:04:21;21.40;;;17.33;;
11016;SDS011;54687;50.800;6.772;2022-12-18T11:06:53;27.00;;;20.03;;
11016;SDS011;54687;50.800;6.772;2022-12-18T11:09:22;23.67;;;18.50;;
11016;SDS011;54687;50.800;6.772;2022-12-18T11:11:51;21.73;;;17.47;;
11016;SDS011;54687;50.800;6.772;2022-12-18T11:14:21;21.77;;;17.53;;
11016;SDS011;54687;50.800;6.772;2022-12-18T11:16:50;19.57;;;16.67;;
11016;SDS011;54687;50.800;6.772;2022-12-18T11:19:22;21.87;;;17.33;;
11016;SDS011;54687;50.800;6.772;2022-12-18T11:21:54;20.87;;;17.60;;
11016;SDS011;54687;50.800;6.772;2022-12-18T11:24:23;21.63;;;17.67;;
11016;SDS011;54687;50.800;6.772;2022-12-18T11:26:56;21.90;;;17.67;;
11016;SDS011;54687;50.800;6.772;2022-12-18T11:29:28;20.83;;;17.83;;
11016;SDS011;54687;50.800;6.772;2022-12-18T11:32:12;22.90;;;17.67;;
11016;SDS011;54687;50.800;6.772;2022-12-18T11:34:51;21.60;;;17.60;;
11016;SDS011;54687;50.800;6.772;2022-12-18T11:37:25;21.63;;;17.87;;
11016;SDS011;54687;50.800;6.772;2022-12-18T11:39:54;23.43;;;17.80;;
11016;SDS011;54687;50.800;6.772;2022-12-18T11:42:27;24.27;;;18.77;;
11016;SDS011;54687;50.800;6.772;2022-12-18T11:45:02;22.07;;;18.17;;
11016;SDS011;54687;50.800;6.772;2022-12-18T11:47:42;25.23;;;18.73;;
11016;SDS011;54687;50.800;6.772;2022-12-18T11:50:14;24.00;;;18.03;;
11016;SDS011;54687;50.800;6.772;2022-12-18T11:52:44;22.13;;;18.83;;
11016;SDS011;54687;50.800;6.772;2022-12-18T11:55:12;25.20;;;18.30;;
11016;SDS011;54687;50.800;6.772;2022-12-18T11:57:44;20.30;;;17.97;;
11016;SDS011;54687;50.800;6.772;2022-12-18T12:00:18;23.93;;;19.53;;
11016;SDS011;54687;50.800;6.772;2022-12-18T12:05:51;23.67;;;19.80;;
11016;SDS011;54687;50.800;6.772;2022-12-18T12:08:31;21.90;;;17.47;;
11016;SDS011;54687;50.800;6.772;2022-12-18T12:11:11;21.53;;;18.27;;
11016;SDS011;54687;50.800;6.772;2022-12-18T12:13:48;23.10;;;19.03;;
11016;SDS011;54687;50.800;6.772;2022-12-18T12:16:22;22.47;;;18.43;;
11016;SDS011;54687;50.800;6.772;2022-12-18T12:19:02;28.43;;;19.70;;
11016;SDS011;54687;50.800;6.772;2022-12-18T12:21:42;24.63;;;19.47;;
11016;SDS011;54687;50.800;6.772;2022-12-18T12:24:25;23.13;;;17.67;;
11016;SDS011;54687;50.800;6.772;2022-12-18T12:27:02;25.30;;;19.60;;
11016;SDS011;54687;50.800;6.772;2022-12-18T12:29:45;23.47;;;19.17;;
11016;SDS011;54687;50.800;6.772;2022-12-18T12:32:25;23.00;;;18.90;;
11016;SDS011;54687;50.800;6.772;2022-12-18T12:35:03;26.93;;;20.33;;
11016;SDS011;54687;50.800;6.772;2022-12-18T12:37:43;24.00;;;19.30;;
11016;SDS011;54687;50.800;6.772;2022-12-18T12:40:18;23.63;;;18.33;;
11016;SDS011;54687;50.800;6.772;2022-12-18T12:42:47;21.73;;;19.03;;
11016;SDS011;54687;50.800;6.772;2022-12-18T12:45:40;22.33;;;19.53;;
11016;SDS011;54687;50.800;6.772;2022-12-18T12:48:14;24.30;;;19.70;;
11016;SDS011;54687;50.800;6.772;2022-12-18T12:50:45;22.00;;;19.60;;
11016;SDS011;54687;50.800;6.772;2022-12-18T12:53:17;23.03;;;19.27;;
11016;SDS011;54687;50.800;6.772;2022-12-18T12:55:51;24.00;;;19.33;;
11016;SDS011;54687;50.800;6.772;2022-12-18T12:58:21;24.07;;;19.30;;
11016;SDS011;54687;50.800;6.772;2022-12-18T13:00:59;27.83;;;19.03;;
11016;SDS011;54687;50.800;6.772;2022-12-18T13:03:32;25.73;;;18.77;;
11016;SDS011;54687;50.800;6.772;2022-12-18T13:06:10;23.03;;;19.13;;
11016;SDS011;54687;50.800;6.772;2022-12-18T13:08:52;23.70;;;18.73;;
11016;SDS011;54687;50.800;6.772;2022-12-18T13:11:31;28.27;;;20.77;;
11016;SDS011;54687;50.800;6.772;2022-12-18T13:14:29;27.17;;;19.87;;
11016;SDS011;54687;50.800;6.772;2022-12-18T13:20:02;25.70;;;20.77;;
11016;SDS011;54687;50.800;6.772;2022-12-18T13:22:33;25.67;;;20.10;;
11016;SDS011;54687;50.800;6.772;2022-12-18T13:25:01;26.33;;;20.33;;
11016;SDS011;54687;50.800;6.772;2022-12-18T13:30:41;28.60;;;21.70;;
11016;SDS011;54687;50.800;6.772;2022-12-18T13:36:28;28.13;;;21.87;;
11016;SDS011;54687;50.800;6.772;2022-12-18T13:39:10;26.30;;;21.23;;
11016;SDS011;54687;50.800;6.772;2022-12-18T13:41:51;28.37;;;21.47;;
11016;SDS011;54687;50.800;6.772;2022-12-18T13:44:24;27.00;;;20.60;;
11016;SDS011;54687;50.800;6.772;2022-12-18T13:46:57;26.50;;;21.87;;
11016;SDS011;54687;50.800;6.772;2022-12-18T13:49:25;25.73;;;20.80;;
11016;SDS011;54687;50.800;6.772;2022-12-18T13:52:00;26.73;;;22.30;;
11016;SDS011;54687;50.800;6.772;2022-12-18T13:54:28;27.23;;;20.83;;
11016;SDS011;54687;50.800;6.772;2022-12-18T13:57:00;25.20;;;21.63;;
11016;SDS011;54687;50.800;6.772;2022-12-18T13:59:32;30.63;;;21.73;;
11016;SDS011;54687;50.800;6.772;2022-12-18T14:02:01;29.43;;;21.90;;
11016;SDS011;54687;50.800;6.772;2022-12-18T14:04:39;24.90;;;20.13;;
11016;SDS011;54687;50.800;6.772;2022-12-18T14:07:07;26.77;;;22.83;;
11016;SDS011;54687;50.800;6.772;2022-12-18T14:09:40;24.57;;;21.30;;
11016;SDS011;54687;50.800;6.772;2022-12-18T14:12:14;26.37;;;21.30;;
11016;SDS011;54687;50.800;6.772;2022-12-18T14:15:00;28.30;;;21.53;;
11016;SDS011;54687;50.800;6.772;2022-12-18T14:17:28;26.57;;;21.03;;
11016;SDS011;54687;50.800;6.772;2022-12-18T14:19:56;26.83;;;22.13;;
11016;SDS011;54687;50.800;6.772;2022-12-18T14:22:25;28.53;;;21.77;;
11016;SDS011;54687;50.800;6.772;2022-12-18T14:27:44;27.10;;;22.70;;
11016;SDS011;54687;50.800;6.772;2022-12-18T14:32:59;27.10;;;22.40;;
11016;SDS011;54687;50.800;6.772;2022-12-18T14:35:30;30.00;;;23.43;;
11016;SDS011;54687;50.800;6.772;2022-12-18T14:38:10;27.03;;;23.20;;
11016;SDS011;54687;50.800;6.772;2022-12-18T14:40:44;28.57;;;22.90;;
11016;SDS011;54687;50.800;6.772;2022-12-18T14:43:10;27.60;;;22.37;;
11016;SDS011;54687;50.800;6.772;2022-12-18T14:45:38;30.37;;;23.33;;
11016;SDS011;54687;50.800;6.772;2022-12-18T14:48:07;31.50;;;24.17;;
11016;SDS011;54687;50.800;6.772;2022-12-18T14:50:35;30.37;;;22.83;;
11016;SDS011;54687;50.800;6.772;2022-12-18T14:53:01;27.33;;;22.77;;
11016;SDS011;54687;50.800;6.772;2022-12-18T14:55:29;29.77;;;23.80;;
11016;SDS011;54687;50.800;6.772;2022-12-18T14:57:56;28.80;;;23.20;;
11016;SDS011;54687;50.800;6.772;2022-12-18T15:00:24;37.53;;;25.57;;